Terminal Aerodrome Forecast
Issued by NWS Memphis, TN

Current Version | Previous Version | Text Only | Print | Product List | Glossary On
Versions: 1 2 3 4 5 6 7 8 9 10 11 12 13 14 15 16 17 18 19 20 21 22 23 24 25 26 27
000
FTUS44 KMEG 221516 AAB
TAFMEM
TAF AMD
KMEM 221516Z 2215/2318 08007KT 6SM -SHRA VCTS BKN015 OVC035CB
      TEMPO 2219/2223 VRB10KT 3SM TSRA BKN025CB
     FM230100 23005KT P6SM VCSH SCT015 OVC035
     FM230500 23004KT P6SM VCSH BKN008 OVC015
     FM231500 18005KT P6SM VCSH OVC018=

USA.gov is the U.S. government's official web portal to all federal, state and local government web resources and services.